sensor_id;sensor_type;location;lat;lon;timestamp;P1;durP1;ratioP1;P2;durP2;ratioP2
10418;SDS011;5256;48.728;9.140;2023-02-28T00:00:39;1.20;;;1.20;;
10418;SDS011;5256;48.728;9.140;2023-02-28T00:03:04;1.27;;;1.27;;
10418;SDS011;5256;48.728;9.140;2023-02-28T00:05:30;1.20;;;1.20;;
10418;SDS011;5256;48.728;9.140;2023-02-28T00:07:56;1.13;;;1.13;;
10418;SDS011;5256;48.728;9.140;2023-02-28T00:10:23;1.20;;;1.20;;
10418;SDS011;5256;48.728;9.140;2023-02-28T00:12:51;1.20;;;1.20;;
10418;SDS011;5256;48.728;9.140;2023-02-28T00:15:18;1.20;;;1.20;;
10418;SDS011;5256;48.728;9.140;2023-02-28T00:17:44;1.20;;;1.20;;
10418;SDS011;5256;48.728;9.140;2023-02-28T00:20:10;1.30;;;1.30;;
10418;SDS011;5256;48.728;9.140;2023-02-28T00:22:38;1.30;;;1.30;;
10418;SDS011;5256;48.728;9.140;2023-02-28T00:25:06;1.20;;;1.20;;
10418;SDS011;5256;48.728;9.140;2023-02-28T00:27:32;1.20;;;1.20;;
10418;SDS011;5256;48.728;9.140;2023-02-28T00:29:59;1.27;;;1.27;;
10418;SDS011;5256;48.728;9.140;2023-02-28T00:32:25;1.20;;;1.20;;
10418;SDS011;5256;48.728;9.140;2023-02-28T00:34:51;1.20;;;1.20;;
10418;SDS011;5256;48.728;9.140;2023-02-28T00:37:16;1.20;;;1.20;;
10418;SDS011;5256;48.728;9.140;2023-02-28T00:39:42;1.30;;;1.30;;
10418;SDS011;5256;48.728;9.140;2023-02-28T00:42:08;1.30;;;1.30;;
10418;SDS011;5256;48.728;9.140;2023-02-28T00:44:33;1.20;;;1.20;;
10418;SDS011;5256;48.728;9.140;2023-02-28T00:46:59;1.20;;;1.20;;
10418;SDS011;5256;48.728;9.140;2023-02-28T00:49:26;1.30;;;1.30;;
10418;SDS011;5256;48.728;9.140;2023-02-28T00:51:53;1.30;;;1.30;;
10418;SDS011;5256;48.728;9.140;2023-02-28T00:54:19;1.30;;;1.30;;
10418;SDS011;5256;48.728;9.140;2023-02-28T00:56:45;1.20;;;1.20;;
10418;SDS011;5256;48.728;9.140;2023-02-28T00:59:14;1.20;;;1.20;;
10418;SDS011;5256;48.728;9.140;2023-02-28T01:01:41;1.30;;;1.30;;
10418;SDS011;5256;48.728;9.140;2023-02-28T01:04:08;1.30;;;1.30;;
10418;SDS011;5256;48.728;9.140;2023-02-28T01:06:34;1.20;;;1.20;;
10418;SDS011;5256;48.728;9.140;2023-02-28T01:08:59;1.27;;;1.27;;
10418;SDS011;5256;48.728;9.140;2023-02-28T01:11:25;1.30;;;1.30;;
10418;SDS011;5256;48.728;9.140;2023-02-28T01:13:51;1.20;;;1.20;;
10418;SDS011;5256;48.728;9.140;2023-02-28T01:16:16;1.30;;;1.30;;
10418;SDS011;5256;48.728;9.140;2023-02-28T01:18:42;1.30;;;1.30;;
10418;SDS011;5256;48.728;9.140;2023-02-28T01:21:10;1.20;;;1.20;;
10418;SDS011;5256;48.728;9.140;2023-02-28T01:23:37;1.30;;;1.30;;
10418;SDS011;5256;48.728;9.140;2023-02-28T01:26:08;1.30;;;1.30;;
10418;SDS011;5256;48.728;9.140;2023-02-28T01:28:36;1.20;;;1.20;;
10418;SDS011;5256;48.728;9.140;2023-02-28T01:31:02;1.27;;;1.27;;
10418;SDS011;5256;48.728;9.140;2023-02-28T01:33:28;1.20;;;1.20;;
10418;SDS011;5256;48.728;9.140;2023-02-28T01:35:57;1.20;;;1.20;;
10418;SDS011;5256;48.728;9.140;2023-02-28T01:38:27;1.20;;;1.20;;
10418;SDS011;5256;48.728;9.140;2023-02-28T01:40:53;1.30;;;1.30;;
10418;SDS011;5256;48.728;9.140;2023-02-28T01:43:20;1.20;;;1.20;;
10418;SDS011;5256;48.728;9.140;2023-02-28T01:45:51;1.30;;;1.30;;
10418;SDS011;5256;48.728;9.140;2023-02-28T01:48:18;1.20;;;1.20;;
10418;SDS011;5256;48.728;9.140;2023-02-28T01:50:46;1.30;;;1.30;;
10418;SDS011;5256;48.728;9.140;2023-02-28T01:53:13;1.20;;;1.20;;
10418;SDS011;5256;48.728;9.140;2023-02-28T01:55:42;1.30;;;1.30;;
10418;SDS011;5256;48.728;9.140;2023-02-28T01:58:12;1.30;;;1.30;;
10418;SDS011;5256;48.728;9.140;2023-02-28T02:00:38;1.20;;;1.20;;
10418;SDS011;5256;48.728;9.140;2023-02-28T02:03:06;1.30;;;1.30;;
10418;SDS011;5256;48.728;9.140;2023-02-28T02:05:34;1.30;;;1.30;;
10418;SDS011;5256;48.728;9.140;2023-02-28T02:08:04;1.20;;;1.20;;
10418;SDS011;5256;48.728;9.140;2023-02-28T02:10:36;1.20;;;1.20;;
10418;SDS011;5256;48.728;9.140;2023-02-28T02:13:16;1.30;;;1.30;;
10418;SDS011;5256;48.728;9.140;2023-02-28T02:15:56;1.20;;;1.20;;
10418;SDS011;5256;48.728;9.140;2023-02-28T02:18:34;1.20;;;1.20;;
10418;SDS011;5256;48.728;9.140;2023-02-28T02:26:55;1.20;;;1.20;;
10418;SDS011;5256;48.728;9.140;2023-02-28T02:32:28;1.20;;;1.20;;
10418;SDS011;5256;48.728;9.140;2023-02-28T02:35:27;1.20;;;1.20;;
10418;SDS011;5256;48.728;9.140;2023-02-28T02:44:10;1.20;;;1.20;;
10418;SDS011;5256;48.728;9.140;2023-02-28T02:46:38;1.30;;;1.30;;
10418;SDS011;5256;48.728;9.140;2023-02-28T02:49:13;1.27;;;1.27;;
10418;SDS011;5256;48.728;9.140;2023-02-28T02:51:44;1.20;;;1.20;;
10418;SDS011;5256;48.728;9.140;2023-02-28T02:54:22;1.20;;;1.20;;
10418;SDS011;5256;48.728;9.140;2023-02-28T02:56:53;1.30;;;1.30;;
10418;SDS011;5256;48.728;9.140;2023-02-28T02:59:26;1.30;;;1.30;;
10418;SDS011;5256;48.728;9.140;2023-02-28T03:01:56;1.20;;;1.20;;
10418;SDS011;5256;48.728;9.140;2023-02-28T03:04:28;1.30;;;1.30;;
10418;SDS011;5256;48.728;9.140;2023-02-28T03:06:58;1.27;;;1.27;;
10418;SDS011;5256;48.728;9.140;2023-02-28T03:09:24;1.30;;;1.30;;
10418;SDS011;5256;48.728;9.140;2023-02-28T03:11:50;1.20;;;1.20;;
10418;SDS011;5256;48.728;9.140;2023-02-28T03:19:50;1.30;;;1.30;;
10418;SDS011;5256;48.728;9.140;2023-02-28T03:28:11;1.20;;;1.20;;
10418;SDS011;5256;48.728;9.140;2023-02-28T03:36:48;1.30;;;1.30;;
10418;SDS011;5256;48.728;9.140;2023-02-28T03:39:21;1.20;;;1.20;;
10418;SDS011;5256;48.728;9.140;2023-02-28T03:42:01;1.20;;;1.20;;
10418;SDS011;5256;48.728;9.140;2023-02-28T03:47:06;1.20;;;1.20;;
10418;SDS011;5256;48.728;9.140;2023-02-28T03:49:49;1.30;;;1.30;;
10418;SDS011;5256;48.728;9.140;2023-02-28T03:52:20;1.30;;;1.30;;
10418;SDS011;5256;48.728;9.140;2023-02-28T03:54:50;1.23;;;1.23;;
10418;SDS011;5256;48.728;9.140;2023-02-28T03:57:32;1.20;;;1.20;;
10418;SDS011;5256;48.728;9.140;2023-02-28T04:00:12;1.20;;;1.20;;
10418;SDS011;5256;48.728;9.140;2023-02-28T04:02:42;1.20;;;1.20;;
10418;SDS011;5256;48.728;9.140;2023-02-28T04:05:08;1.20;;;1.20;;
10418;SDS011;5256;48.728;9.140;2023-02-28T04:07:34;1.30;;;1.30;;
10418;SDS011;5256;48.728;9.140;2023-02-28T04:09:59;1.20;;;1.20;;
10418;SDS011;5256;48.728;9.140;2023-02-28T04:12:25;1.20;;;1.20;;
10418;SDS011;5256;48.728;9.140;2023-02-28T04:14:51;1.20;;;1.20;;
10418;SDS011;5256;48.728;9.140;2023-02-28T04:17:16;1.23;;;1.23;;
10418;SDS011;5256;48.728;9.140;2023-02-28T04:19:43;1.20;;;1.20;;
10418;SDS011;5256;48.728;9.140;2023-02-28T04:22:09;1.30;;;1.30;;
10418;SDS011;5256;48.728;9.140;2023-02-28T04:24:35;1.20;;;1.20;;
10418;SDS011;5256;48.728;9.140;2023-02-28T04:27:00;1.40;;;1.40;;
10418;SDS011;5256;48.728;9.140;2023-02-28T04:29:27;1.20;;;1.20;;
10418;SDS011;5256;48.728;9.140;2023-02-28T04:31:54;1.20;;;1.20;;
10418;SDS011;5256;48.728;9.140;2023-02-28T04:34:24;1.20;;;1.20;;
10418;SDS011;5256;48.728;9.140;2023-02-28T04:36:51;1.20;;;1.20;;
10418;SDS011;5256;48.728;9.140;2023-02-28T04:39:20;1.23;;;1.23;;
10418;SDS011;5256;48.728;9.140;2023-02-28T04:41:46;1.20;;;1.20;;
10418;SDS011;5256;48.728;9.140;2023-02-28T04:44:12;1.20;;;1.20;;
10418;SDS011;5256;48.728;9.140;2023-02-28T04:46:38;1.20;;;1.20;;
10418;SDS011;5256;48.728;9.140;2023-02-28T04:49:04;1.20;;;1.20;;
10418;SDS011;5256;48.728;9.140;2023-02-28T04:51:30;1.30;;;1.30;;
10418;SDS011;5256;48.728;9.140;2023-02-28T04:53:56;1.27;;;1.27;;
10418;SDS011;5256;48.728;9.140;2023-02-28T04:56:22;1.10;;;1.10;;
10418;SDS011;5256;48.728;9.140;2023-02-28T04:58:47;1.20;;;1.20;;
10418;SDS011;5256;48.728;9.140;2023-02-28T05:01:30;1.17;;;1.17;;
10418;SDS011;5256;48.728;9.140;2023-02-28T05:03:59;1.30;;;1.30;;
10418;SDS011;5256;48.728;9.140;2023-02-28T05:06:26;1.20;;;1.20;;
10418;SDS011;5256;48.728;9.140;2023-02-28T05:08:53;1.30;;;1.30;;
10418;SDS011;5256;48.728;9.140;2023-02-28T05:11:21;1.30;;;1.30;;
10418;SDS011;5256;48.728;9.140;2023-02-28T05:13:50;1.20;;;1.20;;
10418;SDS011;5256;48.728;9.140;2023-02-28T05:16:16;1.30;;;1.30;;
10418;SDS011;5256;48.728;9.140;2023-02-28T05:18:42;1.20;;;1.20;;
10418;SDS011;5256;48.728;9.140;2023-02-28T05:23:54;1.20;;;1.20;;
10418;SDS011;5256;48.728;9.140;2023-02-28T05:26:21;1.20;;;1.20;;
10418;SDS011;5256;48.728;9.140;2023-02-28T05:28:47;1.20;;;1.20;;
10418;SDS011;5256;48.728;9.140;2023-02-28T05:31:13;1.30;;;1.30;;
10418;SDS011;5256;48.728;9.140;2023-02-28T05:33:38;1.20;;;1.20;;
10418;SDS011;5256;48.728;9.140;2023-02-28T05:36:04;1.20;;;1.20;;
10418;SDS011;5256;48.728;9.140;2023-02-28T05:38:30;1.20;;;1.20;;
10418;SDS011;5256;48.728;9.140;2023-02-28T05:40:59;1.30;;;1.30;;
10418;SDS011;5256;48.728;9.140;2023-02-28T05:43:25;1.20;;;1.20;;
10418;SDS011;5256;48.728;9.140;2023-02-28T05:45:50;1.30;;;1.30;;
10418;SDS011;5256;48.728;9.140;2023-02-28T05:48:16;1.20;;;1.20;;
10418;SDS011;5256;48.728;9.140;2023-02-28T05:50:43;1.20;;;1.20;;
10418;SDS011;5256;48.728;9.140;2023-02-28T05:53:10;1.20;;;1.20;;
10418;SDS011;5256;48.728;9.140;2023-02-28T05:55:36;1.30;;;1.30;;
10418;SDS011;5256;48.728;9.140;2023-02-28T05:58:02;1.20;;;1.20;;
10418;SDS011;5256;48.728;9.140;2023-02-28T06:00:27;1.20;;;1.20;;
10418;SDS011;5256;48.728;9.140;2023-02-28T06:02:53;1.20;;;1.20;;
10418;SDS011;5256;48.728;9.140;2023-02-28T06:05:24;1.20;;;1.20;;
10418;SDS011;5256;48.728;9.140;2023-02-28T06:07:49;1.30;;;1.30;;
10418;SDS011;5256;48.728;9.140;2023-02-28T06:10:15;1.20;;;1.20;;
10418;SDS011;5256;48.728;9.140;2023-02-28T06:12:41;1.30;;;1.30;;
10418;SDS011;5256;48.728;9.140;2023-02-28T06:15:07;1.20;;;1.20;;
10418;SDS011;5256;48.728;9.140;2023-02-28T06:17:39;1.20;;;1.20;;
10418;SDS011;5256;48.728;9.140;2023-02-28T06:20:06;1.30;;;1.30;;
10418;SDS011;5256;48.728;9.140;2023-02-28T06:22:33;1.20;;;1.20;;
10418;SDS011;5256;48.728;9.140;2023-02-28T06:25:00;1.20;;;1.20;;
10418;SDS011;5256;48.728;9.140;2023-02-28T06:27:25;1.20;;;1.20;;
10418;SDS011;5256;48.728;9.140;2023-02-28T06:29:53;1.20;;;1.20;;
10418;SDS011;5256;48.728;9.140;2023-02-28T06:32:20;1.20;;;1.20;;
10418;SDS011;5256;48.728;9.140;2023-02-28T06:34:46;1.20;;;1.20;;
10418;SDS011;5256;48.728;9.140;2023-02-28T06:37:11;1.20;;;1.20;;
10418;SDS011;5256;48.728;9.140;2023-02-28T06:39:37;1.20;;;1.20;;
10418;SDS011;5256;48.728;9.140;2023-02-28T06:42:02;0.80;;;0.80;;
10418;SDS011;5256;48.728;9.140;2023-02-28T06:44:28;1.20;;;1.20;;
10418;SDS011;5256;48.728;9.140;2023-02-28T06:47:00;1.20;;;1.20;;
10418;SDS011;5256;48.728;9.140;2023-02-28T06:49:31;1.10;;;1.10;;
10418;SDS011;5256;48.728;9.140;2023-02-28T06:51:57;1.20;;;1.20;;
10418;SDS011;5256;48.728;9.140;2023-02-28T06:54:23;1.20;;;1.20;;
10418;SDS011;5256;48.728;9.140;2023-02-28T06:56:48;1.20;;;1.20;;
10418;SDS011;5256;48.728;9.140;2023-02-28T06:59:14;1.20;;;1.20;;
10418;SDS011;5256;48.728;9.140;2023-02-28T07:01:40;1.20;;;1.20;;
10418;SDS011;5256;48.728;9.140;2023-02-28T07:04:06;1.20;;;1.20;;
10418;SDS011;5256;48.728;9.140;2023-02-28T07:06:31;1.20;;;1.20;;
10418;SDS011;5256;48.728;9.140;2023-02-28T07:08:57;1.20;;;1.20;;
10418;SDS011;5256;48.728;9.140;2023-02-28T07:11:24;1.20;;;1.20;;
10418;SDS011;5256;48.728;9.140;2023-02-28T07:13:51;1.20;;;1.20;;
10418;SDS011;5256;48.728;9.140;2023-02-28T07:16:21;1.20;;;1.20;;
10418;SDS011;5256;48.728;9.140;2023-02-28T07:18:47;1.20;;;1.20;;
10418;SDS011;5256;48.728;9.140;2023-02-28T07:21:13;0.80;;;0.80;;
10418;SDS011;5256;48.728;9.140;2023-02-28T07:23:39;1.10;;;1.10;;
10418;SDS011;5256;48.728;9.140;2023-02-28T07:26:06;1.10;;;1.10;;
10418;SDS011;5256;48.728;9.140;2023-02-28T07:28:33;1.10;;;1.10;;
10418;SDS011;5256;48.728;9.140;2023-02-28T07:31:05;1.20;;;1.20;;
10418;SDS011;5256;48.728;9.140;2023-02-28T07:33:31;1.10;;;1.10;;
10418;SDS011;5256;48.728;9.140;2023-02-28T07:36:09;1.10;;;1.10;;
10418;SDS011;5256;48.728;9.140;2023-02-28T07:38:40;1.00;;;1.00;;
10418;SDS011;5256;48.728;9.140;2023-02-28T07:41:09;1.10;;;1.10;;
10418;SDS011;5256;48.728;9.140;2023-02-28T07:43:35;1.10;;;1.10;;
10418;SDS011;5256;48.728;9.140;2023-02-28T07:46:02;1.10;;;1.10;;
10418;SDS011;5256;48.728;9.140;2023-02-28T07:48:32;1.10;;;1.10;;
10418;SDS011;5256;48.728;9.140;2023-02-28T07:50:58;1.20;;;1.20;;
10418;SDS011;5256;48.728;9.140;2023-02-28T07:53:24;1.17;;;1.17;;
10418;SDS011;5256;48.728;9.140;2023-02-28T07:55:51;1.10;;;1.10;;
10418;SDS011;5256;48.728;9.140;2023-02-28T07:58:20;1.10;;;1.10;;
10418;SDS011;5256;48.728;9.140;2023-02-28T08:00:45;1.00;;;1.00;;
10418;SDS011;5256;48.728;9.140;2023-02-28T08:03:11;1.10;;;1.10;;
10418;SDS011;5256;48.728;9.140;2023-02-28T08:05:40;1.30;;;1.30;;
10418;SDS011;5256;48.728;9.140;2023-02-28T08:08:06;1.20;;;1.20;;
10418;SDS011;5256;48.728;9.140;2023-02-28T08:10:32;1.20;;;1.20;;
10418;SDS011;5256;48.728;9.140;2023-02-28T08:12:58;1.20;;;1.20;;
10418;SDS011;5256;48.728;9.140;2023-02-28T08:15:23;1.30;;;1.30;;
10418;SDS011;5256;48.728;9.140;2023-02-28T08:17:49;1.10;;;1.10;;
10418;SDS011;5256;48.728;9.140;2023-02-28T08:20:15;1.10;;;1.10;;
10418;SDS011;5256;48.728;9.140;2023-02-28T08:22:40;1.10;;;1.10;;
10418;SDS011;5256;48.728;9.140;2023-02-28T08:25:07;1.10;;;1.10;;
10418;SDS011;5256;48.728;9.140;2023-02-28T08:27:33;1.10;;;1.10;;
10418;SDS011;5256;48.728;9.140;2023-02-28T08:29:59;1.10;;;1.10;;
10418;SDS011;5256;48.728;9.140;2023-02-28T08:32:24;1.10;;;1.10;;
10418;SDS011;5256;48.728;9.140;2023-02-28T08:34:50;1.10;;;1.10;;
10418;SDS011;5256;48.728;9.140;2023-02-28T08:37:16;1.00;;;1.00;;
10418;SDS011;5256;48.728;9.140;2023-02-28T08:39:41;1.00;;;1.00;;
10418;SDS011;5256;48.728;9.140;2023-02-28T08:42:07;1.10;;;1.10;;
10418;SDS011;5256;48.728;9.140;2023-02-28T08:44:33;1.07;;;1.07;;
10418;SDS011;5256;48.728;9.140;2023-02-28T08:46:58;1.00;;;1.00;;
10418;SDS011;5256;48.728;9.140;2023-02-28T08:49:24;1.10;;;1.10;;
10418;SDS011;5256;48.728;9.140;2023-02-28T08:51:49;1.20;;;1.20;;
10418;SDS011;5256;48.728;9.140;2023-02-28T08:54:15;1.10;;;1.10;;
10418;SDS011;5256;48.728;9.140;2023-02-28T08:56:44;1.10;;;1.10;;
10418;SDS011;5256;48.728;9.140;2023-02-28T08:59:10;1.10;;;1.10;;
10418;SDS011;5256;48.728;9.140;2023-02-28T09:01:36;1.10;;;1.10;;
10418;SDS011;5256;48.728;9.140;2023-02-28T09:04:01;1.00;;;1.00;;
10418;SDS011;5256;48.728;9.140;2023-02-28T09:06:27;1.07;;;1.07;;
10418;SDS011;5256;48.728;9.140;2023-02-28T09:08:55;1.10;;;1.10;;
10418;SDS011;5256;48.728;9.140;2023-02-28T09:11:23;1.20;;;1.20;;
10418;SDS011;5256;48.728;9.140;2023-02-28T09:13:49;1.20;;;1.20;;
10418;SDS011;5256;48.728;9.140;2023-02-28T09:16:15;1.10;;;1.10;;
10418;SDS011;5256;48.728;9.140;2023-02-28T09:18:41;1.00;;;1.00;;
10418;SDS011;5256;48.728;9.140;2023-02-28T09:21:11;1.07;;;1.07;;
10418;SDS011;5256;48.728;9.140;2023-02-28T09:23:40;1.17;;;1.17;;
10418;SDS011;5256;48.728;9.140;2023-02-28T09:26:07;1.10;;;1.10;;
10418;SDS011;5256;48.728;9.140;2023-02-28T09:28:37;1.00;;;1.00;;
10418;SDS011;5256;48.728;9.140;2023-02-28T09:31:03;1.10;;;1.10;;
10418;SDS011;5256;48.728;9.140;2023-02-28T09:33:29;1.10;;;1.10;;
10418;SDS011;5256;48.728;9.140;2023-02-28T09:35:59;1.10;;;1.10;;
10418;SDS011;5256;48.728;9.140;2023-02-28T09:38:26;1.10;;;1.10;;
10418;SDS011;5256;48.728;9.140;2023-02-28T09:40:53;1.10;;;1.10;;
10418;SDS011;5256;48.728;9.140;2023-02-28T09:43:26;1.10;;;1.10;;
10418;SDS011;5256;48.728;9.140;2023-02-28T09:46:00;1.00;;;1.00;;
10418;SDS011;5256;48.728;9.140;2023-02-28T09:48:29;1.07;;;1.07;;
10418;SDS011;5256;48.728;9.140;2023-02-28T09:51:03;1.10;;;1.10;;
10418;SDS011;5256;48.728;9.140;2023-02-28T09:53:37;1.10;;;1.10;;
10418;SDS011;5256;48.728;9.140;2023-02-28T09:56:05;1.07;;;1.07;;
10418;SDS011;5256;48.728;9.140;2023-02-28T09:58:37;1.10;;;1.10;;
10418;SDS011;5256;48.728;9.140;2023-02-28T10:04:09;1.00;;;1.00;;
10418;SDS011;5256;48.728;9.140;2023-02-28T10:06:46;1.10;;;1.10;;
10418;SDS011;5256;48.728;9.140;2023-02-28T10:09:19;1.10;;;1.10;;
10418;SDS011;5256;48.728;9.140;2023-02-28T10:11:52;1.07;;;1.07;;
10418;SDS011;5256;48.728;9.140;2023-02-28T10:14:22;1.00;;;1.00;;
10418;SDS011;5256;48.728;9.140;2023-02-28T10:16:52;1.10;;;1.10;;
10418;SDS011;5256;48.728;9.140;2023-02-28T10:19:31;1.00;;;1.00;;
10418;SDS011;5256;48.728;9.140;2023-02-28T10:24:48;1.00;;;1.00;;
10418;SDS011;5256;48.728;9.140;2023-02-28T10:29:44;0.90;;;0.90;;
10418;SDS011;5256;48.728;9.140;2023-02-28T10:32:13;1.00;;;1.00;;
10418;SDS011;5256;48.728;9.140;2023-02-28T10:34:41;1.00;;;1.00;;
10418;SDS011;5256;48.728;9.140;2023-02-28T10:37:07;1.00;;;1.00;;
10418;SDS011;5256;48.728;9.140;2023-02-28T10:39:43;1.00;;;1.00;;
10418;SDS011;5256;48.728;9.140;2023-02-28T10:42:29;1.00;;;1.00;;
10418;SDS011;5256;48.728;9.140;2023-02-28T10:45:04;0.90;;;0.90;;
10418;SDS011;5256;48.728;9.140;2023-02-28T10:47:31;1.00;;;1.00;;
10418;SDS011;5256;48.728;9.140;2023-02-28T10:50:00;0.90;;;0.90;;
10418;SDS011;5256;48.728;9.140;2023-02-28T10:52:33;0.90;;;0.90;;
10418;SDS011;5256;48.728;9.140;2023-02-28T10:55:22;0.90;;;0.90;;
10418;SDS011;5256;48.728;9.140;2023-02-28T10:57:50;1.00;;;1.00;;
10418;SDS011;5256;48.728;9.140;2023-02-28T11:00:20;0.90;;;0.90;;
10418;SDS011;5256;48.728;9.140;2023-02-28T11:02:47;1.00;;;1.00;;
10418;SDS011;5256;48.728;9.140;2023-02-28T11:05:35;1.00;;;1.00;;
10418;SDS011;5256;48.728;9.140;2023-02-28T11:10:38;0.90;;;0.90;;
10418;SDS011;5256;48.728;9.140;2023-02-28T11:13:04;0.97;;;0.97;;
10418;SDS011;5256;48.728;9.140;2023-02-28T11:15:32;0.90;;;0.90;;
10418;SDS011;5256;48.728;9.140;2023-02-28T11:18:21;0.97;;;0.97;;
10418;SDS011;5256;48.728;9.140;2023-02-28T11:20:48;0.90;;;0.90;;
10418;SDS011;5256;48.728;9.140;2023-02-28T11:23:19;1.00;;;1.00;;
10418;SDS011;5256;48.728;9.140;2023-02-28T11:25:47;0.90;;;0.90;;
10418;SDS011;5256;48.728;9.140;2023-02-28T11:33:42;1.10;;;1.10;;
10418;SDS011;5256;48.728;9.140;2023-02-28T11:36:12;0.90;;;0.90;;
10418;SDS011;5256;48.728;9.140;2023-02-28T11:38:55;1.00;;;1.00;;
10418;SDS011;5256;48.728;9.140;2023-02-28T11:41:29;1.00;;;1.00;;
10418;SDS011;5256;48.728;9.140;2023-02-28T11:49:50;1.00;;;1.00;;
10418;SDS011;5256;48.728;9.140;2023-02-28T11:55:20;0.90;;;0.90;;
10418;SDS011;5256;48.728;9.140;2023-02-28T11:58:11;0.90;;;0.90;;
10418;SDS011;5256;48.728;9.140;2023-02-28T12:00:50;1.00;;;1.00;;
10418;SDS011;5256;48.728;9.140;2023-02-28T12:03:43;0.90;;;0.90;;
10418;SDS011;5256;48.728;9.140;2023-02-28T12:06:36;0.90;;;0.90;;
10418;SDS011;5256;48.728;9.140;2023-02-28T12:11:55;0.80;;;0.80;;
10418;SDS011;5256;48.728;9.140;2023-02-28T12:14:40;0.80;;;0.80;;
10418;SDS011;5256;48.728;9.140;2023-02-28T12:28:43;0.80;;;0.80;;
10418;SDS011;5256;48.728;9.140;2023-02-28T12:31:35;0.80;;;0.80;;
10418;SDS011;5256;48.728;9.140;2023-02-28T12:34:06;0.90;;;0.90;;
10418;SDS011;5256;48.728;9.140;2023-02-28T12:36:36;0.90;;;0.90;;
10418;SDS011;5256;48.728;9.140;2023-02-28T12:39:48;0.80;;;0.80;;
10418;SDS011;5256;48.728;9.140;2023-02-28T12:41:59;0.93;;;0.93;;
10418;SDS011;5256;48.728;9.140;2023-02-28T12:44:34;0.90;;;0.90;;
10418;SDS011;5256;48.728;9.140;2023-02-28T12:47:14;0.90;;;0.90;;
10418;SDS011;5256;48.728;9.140;2023-02-28T12:52:56;0.87;;;0.87;;
10418;SDS011;5256;48.728;9.140;2023-02-28T13:04:05;0.87;;;0.87;;
10418;SDS011;5256;48.728;9.140;2023-02-28T13:07:00;0.90;;;0.90;;
10418;SDS011;5256;48.728;9.140;2023-02-28T13:09:41;0.80;;;0.80;;
10418;SDS011;5256;48.728;9.140;2023-02-28T13:12:21;0.77;;;0.77;;
10418;SDS011;5256;48.728;9.140;2023-02-28T13:14:48;1.10;;;1.10;;
10418;SDS011;5256;48.728;9.140;2023-02-28T13:17:19;0.90;;;0.90;;
10418;SDS011;5256;48.728;9.140;2023-02-28T13:22:35;0.90;;;0.90;;
10418;SDS011;5256;48.728;9.140;2023-02-28T13:28:00;0.90;;;0.90;;
10418;SDS011;5256;48.728;9.140;2023-02-28T13:38:47;0.77;;;0.77;;
10418;SDS011;5256;48.728;9.140;2023-02-28T13:46:36;0.80;;;0.80;;
10418;SDS011;5256;48.728;9.140;2023-02-28T13:51:50;0.80;;;0.80;;
10418;SDS011;5256;48.728;9.140;2023-02-28T13:54:43;0.70;;;0.70;;
10418;SDS011;5256;48.728;9.140;2023-02-28T13:57:50;0.80;;;0.80;;
10418;SDS011;5256;48.728;9.140;2023-02-28T14:00:23;0.90;;;0.90;;
10418;SDS011;5256;48.728;9.140;2023-02-28T14:08:53;0.77;;;0.77;;
10418;SDS011;5256;48.728;9.140;2023-02-28T14:11:39;0.80;;;0.80;;
10418;SDS011;5256;48.728;9.140;2023-02-28T14:14:07;0.80;;;0.80;;
10418;SDS011;5256;48.728;9.140;2023-02-28T14:19:25;0.80;;;0.80;;
10418;SDS011;5256;48.728;9.140;2023-02-28T14:24:59;0.80;;;0.80;;
10418;SDS011;5256;48.728;9.140;2023-02-28T14:31:13;0.80;;;0.80;;
10418;SDS011;5256;48.728;9.140;2023-02-28T14:34:03;0.80;;;0.80;;
10418;SDS011;5256;48.728;9.140;2023-02-28T14:36:37;0.80;;;0.80;;
10418;SDS011;5256;48.728;9.140;2023-02-28T14:39:06;0.80;;;0.80;;
10418;SDS011;5256;48.728;9.140;2023-02-28T14:41:37;0.90;;;0.90;;
10418;SDS011;5256;48.728;9.140;2023-02-28T14:46:47;0.80;;;0.80;;
10418;SDS011;5256;48.728;9.140;2023-02-28T14:49:16;0.73;;;0.73;;
10418;SDS011;5256;48.728;9.140;2023-02-28T14:52:05;0.80;;;0.80;;
10418;SDS011;5256;48.728;9.140;2023-02-28T14:54:34;0.80;;;0.80;;
10418;SDS011;5256;48.728;9.140;2023-02-28T14:57:00;0.80;;;0.80;;
10418;SDS011;5256;48.728;9.140;2023-02-28T14:59:28;0.80;;;0.80;;
10418;SDS011;5256;48.728;9.140;2023-02-28T15:04:41;0.70;;;0.70;;
10418;SDS011;5256;48.728;9.140;2023-02-28T15:07:10;0.70;;;0.70;;
10418;SDS011;5256;48.728;9.140;2023-02-28T15:09:38;0.70;;;0.70;;
10418;SDS011;5256;48.728;9.140;2023-02-28T15:12:04;0.83;;;0.83;;
10418;SDS011;5256;48.728;9.140;2023-02-28T15:14:30;0.80;;;0.80;;
10418;SDS011;5256;48.728;9.140;2023-02-28T15:16:58;0.90;;;0.90;;
10418;SDS011;5256;48.728;9.140;2023-02-28T15:19:30;0.80;;;0.80;;
10418;SDS011;5256;48.728;9.140;2023-02-28T15:22:00;0.80;;;0.80;;
10418;SDS011;5256;48.728;9.140;2023-02-28T15:27:07;0.70;;;0.70;;
10418;SDS011;5256;48.728;9.140;2023-02-28T15:29:46;0.80;;;0.80;;
10418;SDS011;5256;48.728;9.140;2023-02-28T15:34:47;0.80;;;0.80;;
10418;SDS011;5256;48.728;9.140;2023-02-28T15:39:55;0.70;;;0.70;;
10418;SDS011;5256;48.728;9.140;2023-02-28T15:42:30;0.70;;;0.70;;
10418;SDS011;5256;48.728;9.140;2023-02-28T15:44:56;0.70;;;0.70;;
10418;SDS011;5256;48.728;9.140;2023-02-28T15:47:23;0.70;;;0.70;;
10418;SDS011;5256;48.728;9.140;2023-02-28T15:52:22;0.70;;;0.70;;
10418;SDS011;5256;48.728;9.140;2023-02-28T15:54:56;0.77;;;0.77;;
10418;SDS011;5256;48.728;9.140;2023-02-28T15:57:24;0.70;;;0.70;;
10418;SDS011;5256;48.728;9.140;2023-02-28T15:59:54;0.70;;;0.70;;
10418;SDS011;5256;48.728;9.140;2023-02-28T16:02:30;0.70;;;0.70;;
10418;SDS011;5256;48.728;9.140;2023-02-28T16:05:00;0.70;;;0.70;;
10418;SDS011;5256;48.728;9.140;2023-02-28T16:07:32;0.70;;;0.70;;
10418;SDS011;5256;48.728;9.140;2023-02-28T16:10:00;0.77;;;0.77;;
10418;SDS011;5256;48.728;9.140;2023-02-28T16:12:30;0.73;;;0.73;;
10418;SDS011;5256;48.728;9.140;2023-02-28T16:14:58;0.70;;;0.70;;
10418;SDS011;5256;48.728;9.140;2023-02-28T16:17:28;0.67;;;0.67;;
10418;SDS011;5256;48.728;9.140;2023-02-28T16:19:56;0.77;;;0.77;;
10418;SDS011;5256;48.728;9.140;2023-02-28T16:22:22;0.70;;;0.70;;
10418;SDS011;5256;48.728;9.140;2023-02-28T16:24:48;0.77;;;0.77;;
10418;SDS011;5256;48.728;9.140;2023-02-28T16:29:47;0.80;;;0.80;;
10418;SDS011;5256;48.728;9.140;2023-02-28T16:32:13;0.70;;;0.70;;
10418;SDS011;5256;48.728;9.140;2023-02-28T16:34:40;0.80;;;0.80;;
10418;SDS011;5256;48.728;9.140;2023-02-28T16:37:11;0.70;;;0.70;;
10418;SDS011;5256;48.728;9.140;2023-02-28T16:39:39;0.70;;;0.70;;
10418;SDS011;5256;48.728;9.140;2023-02-28T16:42:05;0.80;;;0.80;;
10418;SDS011;5256;48.728;9.140;2023-02-28T16:44:32;0.73;;;0.73;;
10418;SDS011;5256;48.728;9.140;2023-02-28T16:47:00;0.80;;;0.80;;
10418;SDS011;5256;48.728;9.140;2023-02-28T16:49:27;0.80;;;0.80;;
10418;SDS011;5256;48.728;9.140;2023-02-28T16:51:52;0.80;;;0.80;;
10418;SDS011;5256;48.728;9.140;2023-02-28T16:54:18;0.80;;;0.80;;
10418;SDS011;5256;48.728;9.140;2023-02-28T16:56:44;0.80;;;0.80;;
10418;SDS011;5256;48.728;9.140;2023-02-28T16:59:11;0.80;;;0.80;;
10418;SDS011;5256;48.728;9.140;2023-02-28T17:01:38;0.80;;;0.80;;
10418;SDS011;5256;48.728;9.140;2023-02-28T17:04:04;0.80;;;0.80;;
10418;SDS011;5256;48.728;9.140;2023-02-28T17:06:29;0.90;;;0.90;;
10418;SDS011;5256;48.728;9.140;2023-02-28T17:08:56;0.80;;;0.80;;
10418;SDS011;5256;48.728;9.140;2023-02-28T17:11:23;0.80;;;0.80;;
10418;SDS011;5256;48.728;9.140;2023-02-28T17:13:49;0.80;;;0.80;;
10418;SDS011;5256;48.728;9.140;2023-02-28T17:18:54;1.00;;;1.00;;
10418;SDS011;5256;48.728;9.140;2023-02-28T17:21:24;0.97;;;0.97;;
10418;SDS011;5256;48.728;9.140;2023-02-28T17:23:49;0.90;;;0.90;;
10418;SDS011;5256;48.728;9.140;2023-02-28T17:26:16;0.90;;;0.90;;
10418;SDS011;5256;48.728;9.140;2023-02-28T17:28:44;0.90;;;0.90;;
10418;SDS011;5256;48.728;9.140;2023-02-28T17:31:11;0.90;;;0.90;;
10418;SDS011;5256;48.728;9.140;2023-02-28T17:33:37;0.80;;;0.80;;
10418;SDS011;5256;48.728;9.140;2023-02-28T17:36:02;0.90;;;0.90;;
10418;SDS011;5256;48.728;9.140;2023-02-28T17:38:28;0.80;;;0.80;;
10418;SDS011;5256;48.728;9.140;2023-02-28T17:40:54;0.83;;;0.83;;